Time;durP1;ratioP1;P1;durP2;ratioP2;P2;SDS_P1;SDS_P2;PMS_P1;PMS_P2;Temp;Humidity;BMP_temperature;BMP_pressure;BME280_temperature;BME280_humidity;BME280_pressure;Samples;Min_cycle;Max_cycle;Signal;HPM_P1;HPM_P2
2023/08/12 00:01:21;;;;;;;3.67;2.63;;;18.70;99.90;;;;;;5033964;28;20140;-82
2023/08/12 00:03:48;;;;;;;6.60;3.10;;;18.80;99.90;;;;;;5052318;28;20129;-83
2023/08/12 00:06:14;;;;;;;5.30;3.15;;;18.70;99.90;;;;;;5007097;28;20053;-83
2023/08/12 00:08:39;;;;;;;6.00;2.83;;;18.70;99.90;;;;;;5006475;28;20512;-83
2023/08/12 00:11:05;;;;;;;5.97;3.00;;;18.70;99.90;;;;;;5010924;28;20036;-83
2023/08/12 00:13:30;;;;;;;4.07;3.22;;;18.70;99.90;;;;;;5009749;28;20067;-83
2023/08/12 00:15:56;;;;;;;6.15;3.08;;;18.70;99.90;;;;;;5026146;28;20045;-83
2023/08/12 00:18:22;;;;;;;5.13;3.20;;;18.70;99.90;;;;;;5027846;28;20618;-82
2023/08/12 00:20:49;;;;;;;5.75;2.92;;;18.70;99.90;;;;;;5025143;28;20041;-83
2023/08/12 00:23:14;;;;;;;3.88;2.40;;;18.70;99.90;;;;;;5037194;28;20135;-83
2023/08/12 00:25:40;;;;;;;4.80;3.10;;;18.70;99.90;;;;;;5006066;28;20444;-82
2023/08/12 00:28:05;;;;;;;4.43;2.92;;;18.70;99.90;;;;;;5008913;28;20121;-83
2023/08/12 00:30:31;;;;;;;4.60;2.97;;;18.70;99.90;;;;;;5026902;28;20045;-82
2023/08/12 00:32:57;;;;;;;6.60;3.22;;;18.60;99.90;;;;;;5009802;28;20055;-82
2023/08/12 00:35:23;;;;;;;4.10;2.67;;;18.60;99.90;;;;;;5022858;28;20271;-83
2023/08/12 00:37:48;;;;;;;5.18;3.03;;;18.70;99.90;;;;;;5026172;28;20482;-83
2023/08/12 00:40:14;;;;;;;4.50;2.63;;;18.60;99.90;;;;;;5024692;28;20096;-82
2023/08/12 00:42:40;;;;;;;5.40;3.30;;;18.60;99.90;;;;;;5022127;28;20143;-83
2023/08/12 00:45:10;;;;;;;6.85;3.35;;;18.70;99.90;;;;;;5006014;28;20526;-82
2023/08/12 00:47:37;;;;;;;4.55;2.90;;;18.60;99.90;;;;;;5025326;28;20049;-82
2023/08/12 00:50:03;;;;;;;6.05;3.50;;;18.60;99.90;;;;;;5026131;28;20116;-82
2023/08/12 00:52:28;;;;;;;5.30;3.55;;;18.60;99.90;;;;;;5006277;28;20642;-82
2023/08/12 00:54:54;;;;;;;4.90;3.47;;;18.70;99.90;;;;;;5005712;28;20283;-83
2023/08/12 00:57:20;;;;;;;5.70;3.80;;;18.60;99.90;;;;;;5024425;28;20056;-82
2023/08/12 00:59:47;;;;;;;6.50;3.50;;;18.60;99.90;;;;;;5023243;28;20034;-83
2023/08/12 01:02:13;;;;;;;7.85;4.10;;;18.60;99.90;;;;;;5028694;28;20120;-82
2023/08/12 01:04:38;;;;;;;7.03;3.70;;;18.60;99.90;;;;;;5007954;28;20128;-82
2023/08/12 01:07:04;;;;;;;7.00;3.97;;;18.60;99.90;;;;;;5007502;28;20045;-83
2023/08/12 01:09:30;;;;;;;7.28;3.53;;;18.60;99.90;;;;;;5020953;28;20048;-82
2023/08/12 01:12:18;;;;;;;6.00;3.50;;;18.60;99.90;;;;;;5018406;28;20568;-82
2023/08/12 01:15:01;;;;;;;5.25;3.50;;;18.60;99.90;;;;;;5024626;28;20041;-83
2023/08/12 01:17:29;;;;;;;5.47;3.47;;;18.60;99.90;;;;;;5022858;28;20468;-83
2023/08/12 01:19:56;;;;;;;7.57;3.63;;;18.60;99.90;;;;;;5020182;28;20109;-82
2023/08/12 01:22:25;;;;;;;6.90;3.85;;;18.50;99.90;;;;;;5022875;28;20071;-82
2023/08/12 01:24:52;;;;;;;6.25;3.70;;;18.60;99.90;;;;;;5038846;28;20498;-82
2023/08/12 01:27:17;;;;;;;6.60;4.07;;;18.50;99.90;;;;;;5036695;28;20049;-83
2023/08/12 01:29:46;;;;;;;5.75;3.70;;;18.50;99.90;;;;;;5002533;28;20041;-83
2023/08/12 01:32:24;;;;;;;6.45;3.83;;;18.50;99.90;;;;;;5006357;28;20037;-83
2023/08/12 01:34:59;;;;;;;6.47;3.80;;;18.40;99.90;;;;;;5004909;28;20034;-83
2023/08/12 01:37:28;;;;;;;6.72;4.25;;;18.40;99.90;;;;;;5021202;28;20433;-82
2023/08/12 01:39:56;;;;;;;6.10;3.80;;;18.40;99.90;;;;;;5000820;28;20073;-83
2023/08/12 01:42:23;;;;;;;9.13;4.43;;;18.30;99.90;;;;;;5037571;28;20120;-82
2023/08/12 01:44:49;;;;;;;7.10;4.20;;;18.30;99.90;;;;;;5016701;28;20050;-82
2023/08/12 01:47:15;;;;;;;9.32;4.43;;;18.30;99.90;;;;;;5021346;28;20045;-83
2023/08/12 01:49:41;;;;;;;7.85;4.15;;;18.30;99.90;;;;;;5025259;28;20120;-82
2023/08/12 01:52:06;;;;;;;6.03;4.20;;;18.30;99.90;;;;;;5005854;28;20047;-83
2023/08/12 01:54:34;;;;;;;9.63;4.65;;;18.30;99.90;;;;;;5016521;28;20045;-83
2023/08/12 01:57:08;;;;;;;7.28;4.57;;;18.20;99.90;;;;;;5004004;28;20037;-82
2023/08/12 01:59:34;;;;;;;7.85;4.80;;;18.20;99.90;;;;;;5025566;28;20064;-83
2023/08/12 02:02:00;;;;;;;8.50;5.20;;;18.30;99.90;;;;;;5009710;28;20067;-82
2023/08/12 02:04:26;;;;;;;7.43;5.10;;;18.20;99.90;;;;;;5041943;28;20121;-82
2023/08/12 02:06:53;;;;;;;10.20;4.90;;;18.20;99.90;;;;;;5025852;28;20091;-83
2023/08/12 02:09:18;;;;;;;8.38;5.15;;;18.20;99.90;;;;;;5038795;28;20045;-83
2023/08/12 02:11:44;;;;;;;8.27;4.97;;;18.30;99.90;;;;;;5025859;28;20071;-83
2023/08/12 02:14:10;;;;;;;9.55;4.97;;;18.30;99.90;;;;;;5011883;28;20093;-83
2023/08/12 02:16:35;;;;;;;8.57;4.93;;;18.30;99.90;;;;;;5027448;28;20044;-83
2023/08/12 02:19:01;;;;;;;8.52;5.13;;;18.40;99.90;;;;;;5027216;28;20041;-82
2023/08/12 02:21:27;;;;;;;9.15;5.97;;;18.40;99.90;;;;;;5026967;28;20056;-83
2023/08/12 02:23:52;;;;;;;11.15;4.97;;;18.40;99.90;;;;;;5006001;28;20033;-82
2023/08/12 02:26:18;;;;;;;10.35;5.80;;;18.50;99.90;;;;;;5024013;28;20072;-83
2023/08/12 02:28:44;;;;;;;8.80;5.65;;;18.50;99.90;;;;;;5027860;28;20037;-83
2023/08/12 02:31:10;;;;;;;8.85;5.57;;;18.50;99.90;;;;;;5010039;28;20037;-83
2023/08/12 02:33:35;;;;;;;9.52;5.40;;;18.50;99.90;;;;;;5028323;28;20041;-83
2023/08/12 02:36:01;;;;;;;10.32;5.55;;;18.50;99.90;;;;;;5025064;28;20075;-83
2023/08/12 02:38:27;;;;;;;9.10;5.93;;;18.50;99.90;;;;;;5007473;28;20091;-82
2023/08/12 02:40:52;;;;;;;8.32;5.28;;;18.50;99.90;;;;;;5026599;28;20951;-83
2023/08/12 02:43:18;;;;;;;11.48;6.07;;;18.50;99.90;;;;;;5037008;28;20044;-83
2023/08/12 02:45:44;;;;;;;10.65;6.20;;;18.50;99.90;;;;;;5024737;28;20053;-83
2023/08/12 02:48:10;;;;;;;9.40;6.30;;;18.50;99.90;;;;;;5024195;28;20041;-83
2023/08/12 02:50:36;;;;;;;9.75;5.93;;;18.50;99.90;;;;;;5040813;28;20451;-83
2023/08/12 02:53:02;;;;;;;10.75;6.57;;;18.50;99.90;;;;;;5039853;28;20053;-83
2023/08/12 02:55:28;;;;;;;8.77;6.47;;;18.50;99.90;;;;;;5024794;28;20049;-83
2023/08/12 02:57:54;;;;;;;10.15;6.18;;;18.50;99.90;;;;;;5026637;28;20118;-83
2023/08/12 03:00:20;;;;;;;12.00;6.30;;;18.50;99.90;;;;;;5042225;28;20033;-83
2023/08/12 03:02:46;;;;;;;9.88;6.38;;;18.50;99.90;;;;;;5042817;28;20370;-83
2023/08/12 03:05:11;;;;;;;11.23;6.70;;;18.40;99.90;;;;;;5039637;28;20041;-83
2023/08/12 03:07:37;;;;;;;10.60;6.18;;;18.40;99.90;;;;;;5024507;28;20056;-83
2023/08/12 03:10:03;;;;;;;10.70;6.90;;;18.30;99.90;;;;;;5023706;28;20258;-83
2023/08/12 03:12:28;;;;;;;12.25;7.25;;;18.30;99.90;;;;;;5056269;28;20116;-83
2023/08/12 03:14:54;;;;;;;11.70;6.63;;;18.30;99.90;;;;;;5024309;28;20049;-83
2023/08/12 03:17:19;;;;;;;10.35;6.25;;;18.20;99.90;;;;;;5008026;28;20128;-83
2023/08/12 03:19:45;;;;;;;11.00;6.97;;;18.10;99.90;;;;;;5010155;28;20791;-83
2023/08/12 03:22:11;;;;;;;10.02;6.88;;;18.20;99.90;;;;;;5029471;28;20112;-83
2023/08/12 03:24:37;;;;;;;12.30;7.20;;;18.10;99.90;;;;;;5024998;28;20536;-83
2023/08/12 03:27:02;;;;;;;13.68;7.70;;;18.10;99.90;;;;;;5031709;28;20049;-83
2023/08/12 03:29:28;;;;;;;12.15;7.70;;;18.10;99.90;;;;;;5008664;28;20308;-83
2023/08/12 03:31:53;;;;;;;12.15;7.97;;;18.10;99.90;;;;;;5025596;28;20125;-83
2023/08/12 03:34:19;;;;;;;11.15;7.28;;;18.10;99.90;;;;;;5018989;28;20056;-83
2023/08/12 03:36:48;;;;;;;13.13;7.93;;;18.10;99.90;;;;;;5012174;28;20045;-83
2023/08/12 03:39:13;;;;;;;12.85;7.53;;;18.10;99.90;;;;;;5008560;28;20044;-83
2023/08/12 03:41:39;;;;;;;12.60;8.23;;;18.10;99.90;;;;;;5020230;28;20033;-83
2023/08/12 03:44:05;;;;;;;10.10;6.90;;;18.10;99.90;;;;;;5003750;28;20056;-83
2023/08/12 03:46:31;;;;;;;10.40;6.82;;;18.20;99.90;;;;;;5018996;28;20046;-83
2023/08/12 03:48:57;;;;;;;12.40;7.38;;;18.10;99.90;;;;;;5022103;28;20045;-83
2023/08/12 03:51:22;;;;;;;11.65;7.35;;;18.20;99.90;;;;;;5021624;28;20103;-83
2023/08/12 03:53:48;;;;;;;9.98;6.93;;;18.20;99.90;;;;;;5028176;28;20037;-83
2023/08/12 03:56:16;;;;;;;11.70;7.63;;;18.30;99.90;;;;;;5003928;28;20099;-84
2023/08/12 03:58:45;;;;;;;14.45;9.10;;;18.30;99.90;;;;;;4998293;28;20029;-84
2023/08/12 04:01:10;;;;;;;10.90;7.68;;;18.30;99.90;;;;;;5030369;28;20033;-83
2023/08/12 04:03:36;;;;;;;16.13;8.32;;;18.40;99.90;;;;;;5021338;28;20085;-83
2023/08/12 04:06:03;;;;;;;12.98;7.38;;;18.40;99.90;;;;;;5005269;28;20048;-83
2023/08/12 04:08:29;;;;;;;14.93;8.85;;;18.40;99.90;;;;;;4995871;28;20088;-83
2023/08/12 04:10:54;;;;;;;12.13;7.72;;;18.40;99.90;;;;;;5037578;28;20432;-83
2023/08/12 04:13:20;;;;;;;13.13;8.25;;;18.50;99.90;;;;;;5029789;28;20039;-84
2023/08/12 04:15:50;;;;;;;16.40;9.35;;;18.50;99.90;;;;;;5005956;28;20601;-83
2023/08/12 04:18:16;;;;;;;13.18;8.43;;;18.50;99.90;;;;;;5021311;28;20542;-83
2023/08/12 04:20:42;;;;;;;15.77;9.18;;;18.50;99.90;;;;;;5003319;28;20116;-83
2023/08/12 04:23:07;;;;;;;13.70;8.63;;;18.60;99.90;;;;;;5001226;28;20040;-84
2023/08/12 04:25:33;;;;;;;14.38;9.00;;;18.60;99.90;;;;;;5017635;28;20047;-83
2023/08/12 04:27:59;;;;;;;14.13;8.45;;;18.60;99.90;;;;;;5023226;28;20055;-83
2023/08/12 04:30:27;;;;;;;14.18;9.07;;;18.60;99.90;;;;;;5018983;28;20049;-83
2023/08/12 04:32:53;;;;;;;14.30;8.60;;;18.60;99.90;;;;;;5023035;28;20042;-83
2023/08/12 04:35:19;;;;;;;14.80;8.82;;;18.70;99.90;;;;;;5024399;28;20187;-83
2023/08/12 04:37:44;;;;;;;12.00;8.82;;;18.70;99.90;;;;;;5023120;28;20040;-84
2023/08/12 04:40:11;;;;;;;13.98;8.85;;;18.70;99.90;;;;;;5011544;28;20041;-83
2023/08/12 04:42:37;;;;;;;12.70;8.70;;;18.70;99.90;;;;;;5023908;28;20030;-83
2023/08/12 04:45:03;;;;;;;14.20;8.98;;;18.70;99.90;;;;;;5038772;28;20111;-83
2023/08/12 04:47:32;;;;;;;12.80;8.90;;;18.80;99.90;;;;;;5023172;28;20045;-83
2023/08/12 04:49:58;;;;;;;13.18;9.35;;;18.80;99.90;;;;;;5021271;28;20132;-83
2023/08/12 04:52:25;;;;;;;14.30;8.75;;;18.80;99.90;;;;;;5025946;28;20131;-84
2023/08/12 04:54:53;;;;;;;16.02;8.98;;;18.80;99.90;;;;;;5007043;28;20045;-84
2023/08/12 04:57:19;;;;;;;13.55;9.00;;;18.80;99.90;;;;;;5024750;28;20041;-84
2023/08/12 04:59:45;;;;;;;14.38;9.00;;;18.90;99.90;;;;;;5023074;28;20464;-83
2023/08/12 05:02:10;;;;;;;14.32;9.55;;;18.90;99.90;;;;;;5026523;28;20116;-84
2023/08/12 05:04:36;;;;;;;11.77;8.43;;;18.90;99.90;;;;;;5009260;28;20071;-83
2023/08/12 05:07:02;;;;;;;13.20;8.57;;;18.90;99.90;;;;;;5021702;28;20037;-84
2023/08/12 05:09:27;;;;;;;14.15;8.95;;;18.90;99.90;;;;;;5022112;28;20749;-83
2023/08/12 05:11:53;;;;;;;12.80;8.90;;;18.90;99.90;;;;;;5024359;28;20029;-84
2023/08/12 05:14:18;;;;;;;16.27;9.15;;;19.00;99.90;;;;;;5022762;28;20396;-84
2023/08/12 05:16:44;;;;;;;13.98;10.02;;;19.10;99.90;;;;;;5023400;28;20076;-84
2023/08/12 05:19:10;;;;;;;16.33;9.90;;;19.20;99.90;;;;;;5023862;28;20036;-84
2023/08/12 05:21:35;;;;;;;14.63;9.75;;;19.20;99.90;;;;;;5020918;28;20069;-83
2023/08/12 05:24:02;;;;;;;13.82;9.95;;;19.40;99.90;;;;;;5022960;28;20068;-84
2023/08/12 05:26:27;;;;;;;14.82;9.52;;;19.40;99.90;;;;;;5020433;28;20120;-83
2023/08/12 05:28:53;;;;;;;15.07;9.65;;;19.60;99.90;;;;;;5029646;28;20991;-84
2023/08/12 05:31:18;;;;;;;17.27;9.88;;;19.60;99.90;;;;;;5029582;28;20041;-84
2023/08/12 05:33:44;;;;;;;12.13;8.70;;;19.70;99.90;;;;;;5026180;28;20083;-83
2023/08/12 05:36:13;;;;;;;15.70;9.23;;;19.80;99.90;;;;;;5007436;28;20103;-83
2023/08/12 05:38:38;;;;;;;16.98;10.10;;;19.90;99.90;;;;;;5009724;28;20042;-84
2023/08/12 05:41:07;;;;;;;12.05;8.90;;;20.00;99.90;;;;;;5024771;28;20040;-84
2023/08/12 05:43:32;;;;;;;17.05;9.70;;;20.10;99.90;;;;;;5012065;28;20041;-84
2023/08/12 05:45:58;;;;;;;13.77;9.27;;;20.00;99.90;;;;;;5028693;28;20041;-83
2023/08/12 05:48:24;;;;;;;12.68;8.85;;;20.20;99.90;;;;;;5011737;28;20095;-84
2023/08/12 05:50:49;;;;;;;16.10;8.77;;;20.20;99.90;;;;;;5021430;28;20416;-84
2023/08/12 05:53:15;;;;;;;17.30;8.82;;;20.20;99.90;;;;;;5022032;28;20037;-83
2023/08/12 05:55:40;;;;;;;14.68;9.18;;;20.30;99.90;;;;;;5020416;28;20157;-84
2023/08/12 05:58:10;;;;;;;11.43;8.18;;;20.30;99.90;;;;;;5053253;28;20138;-83
2023/08/12 06:00:36;;;;;;;12.35;8.35;;;20.40;99.90;;;;;;5029786;28;20503;-84
2023/08/12 06:03:02;;;;;;;15.40;9.38;;;20.40;99.90;;;;;;5024156;28;20060;-83
2023/08/12 06:05:27;;;;;;;16.15;9.07;;;20.40;99.90;;;;;;5018325;28;20661;-83
2023/08/12 06:07:53;;;;;;;14.38;9.15;;;20.60;99.90;;;;;;5024066;28;20483;-84
2023/08/12 06:10:19;;;;;;;12.80;9.00;;;20.60;99.90;;;;;;5023328;28;20122;-84
2023/08/12 06:12:44;;;;;;;15.40;9.45;;;20.60;99.90;;;;;;5007136;28;20044;-84
2023/08/12 06:15:10;;;;;;;14.40;9.48;;;20.70;99.90;;;;;;5021887;28;20425;-84
2023/08/12 06:17:36;;;;;;;14.40;9.13;;;20.80;99.90;;;;;;5009228;28;20038;-84
2023/08/12 06:20:02;;;;;;;15.15;9.00;;;20.80;99.90;;;;;;5017193;28;20544;-84
2023/08/12 06:22:28;;;;;;;11.95;9.57;;;20.80;99.90;;;;;;5032722;28;20100;-84
2023/08/12 06:24:53;;;;;;;16.77;10.48;;;20.70;99.90;;;;;;5002797;28;20049;-84
2023/08/12 06:27:20;;;;;;;16.02;9.52;;;20.80;99.90;;;;;;5021378;28;20056;-84
2023/08/12 06:29:46;;;;;;;12.35;9.05;;;20.80;99.90;;;;;;5038948;28;20551;-83
2023/08/12 06:32:14;;;;;;;12.98;9.13;;;20.80;99.90;;;;;;5022758;28;20041;-84
2023/08/12 06:34:40;;;;;;;14.50;9.23;;;20.90;99.90;;;;;;5028233;28;20116;-84
2023/08/12 06:37:06;;;;;;;15.35;9.68;;;20.80;99.90;;;;;;5023675;28;20068;-83
2023/08/12 06:39:31;;;;;;;17.00;9.60;;;20.80;99.90;;;;;;5023905;28;20080;-84
2023/08/12 06:41:58;;;;;;;15.32;9.80;;;20.80;99.90;;;;;;5025823;28;20858;-84
2023/08/12 06:44:24;;;;;;;12.60;9.27;;;20.80;99.90;;;;;;5005173;28;20819;-84
2023/08/12 06:46:50;;;;;;;14.20;9.18;;;20.90;99.90;;;;;;5008937;28;20076;-84
2023/08/12 06:49:16;;;;;;;15.82;9.43;;;20.90;99.90;;;;;;5005643;28;20123;-84
2023/08/12 06:51:41;;;;;;;19.45;9.77;;;21.00;99.90;;;;;;5019632;28;20041;-84
2023/08/12 06:54:07;;;;;;;12.65;9.30;;;21.00;99.90;;;;;;5037905;28;20151;-84
2023/08/12 06:56:33;;;;;;;17.08;10.13;;;21.00;99.90;;;;;;5029107;28;20543;-84
2023/08/12 06:58:59;;;;;;;14.55;9.38;;;21.10;99.90;;;;;;5000968;28;20083;-84
2023/08/12 07:01:24;;;;;;;14.63;10.00;;;21.10;99.90;;;;;;5023498;28;20041;-83
2023/08/12 07:03:50;;;;;;;13.65;9.38;;;21.10;99.90;;;;;;5009479;28;20040;-83
2023/08/12 07:06:16;;;;;;;15.38;9.88;;;21.20;99.90;;;;;;5023996;28;20060;-84
2023/08/12 07:08:41;;;;;;;14.38;9.65;;;21.20;99.90;;;;;;5005349;28;20039;-83
2023/08/12 07:11:07;;;;;;;16.50;10.05;;;21.00;99.90;;;;;;5018996;28;20066;-84
2023/08/12 07:13:33;;;;;;;14.48;9.85;;;21.10;99.90;;;;;;5025599;28;20462;-84
2023/08/12 07:15:59;;;;;;;12.90;10.00;;;21.10;99.90;;;;;;5007781;28;20037;-84
2023/08/12 07:18:24;;;;;;;13.32;9.70;;;21.20;99.90;;;;;;5025106;28;20172;-84
2023/08/12 07:20:50;;;;;;;14.25;9.93;;;21.30;99.90;;;;;;5007367;28;20057;-83
2023/08/12 07:23:16;;;;;;;12.63;9.40;;;21.20;99.90;;;;;;5027152;28;20493;-83
2023/08/12 07:25:41;;;;;;;13.68;9.30;;;21.30;99.90;;;;;;5004924;28;20042;-83
2023/08/12 07:28:07;;;;;;;14.27;9.82;;;21.30;99.90;;;;;;5027022;28;20045;-84
2023/08/12 07:30:35;;;;;;;17.15;10.32;;;21.40;99.90;;;;;;5034692;28;20048;-84
2023/08/12 07:33:01;;;;;;;14.25;9.90;;;21.40;99.90;;;;;;5009067;28;20048;-84
2023/08/12 07:35:26;;;;;;;14.90;9.77;;;21.40;99.90;;;;;;5025193;28;20041;-83
2023/08/12 07:37:52;;;;;;;13.27;9.20;;;21.40;99.90;;;;;;5025978;28;20056;-84
2023/08/12 07:40:18;;;;;;;16.77;9.63;;;21.20;99.90;;;;;;5008385;28;20041;-84
2023/08/12 07:42:43;;;;;;;11.82;9.32;;;21.30;99.90;;;;;;5010197;28;20115;-84
2023/08/12 07:45:09;;;;;;;22.17;10.65;;;21.30;99.90;;;;;;5024713;28;20510;-83
2023/08/12 07:47:35;;;;;;;15.63;10.25;;;21.30;99.90;;;;;;5021334;28;20056;-84
2023/08/12 07:50:00;;;;;;;13.93;9.82;;;21.40;99.90;;;;;;5017726;28;20147;-84
2023/08/12 07:52:26;;;;;;;16.25;10.75;;;21.50;99.90;;;;;;5022814;28;20694;-84
2023/08/12 07:54:51;;;;;;;16.35;11.45;;;21.50;99.90;;;;;;5018483;28;20051;-84
2023/08/12 07:57:17;;;;;;;17.48;10.63;;;21.40;99.90;;;;;;5029938;28;20194;-84
2023/08/12 07:59:43;;;;;;;16.25;10.55;;;21.40;99.90;;;;;;5022255;28;20411;-83
2023/08/12 08:02:08;;;;;;;17.08;10.60;;;21.40;99.90;;;;;;5022896;28;20464;-84
2023/08/12 08:04:34;;;;;;;16.42;10.60;;;21.50;99.90;;;;;;5037666;28;20037;-84
2023/08/12 08:07:00;;;;;;;16.20;10.65;;;21.40;99.90;;;;;;5024735;28;20049;-84
2023/08/12 08:09:26;;;;;;;17.42;11.60;;;21.50;99.90;;;;;;5005369;28;20044;-83
2023/08/12 08:11:51;;;;;;;16.05;10.95;;;21.50;99.90;;;;;;5022923;28;20394;-83
2023/08/12 08:14:17;;;;;;;16.55;10.43;;;21.50;99.90;;;;;;5023909;28;20320;-84
2023/08/12 08:16:43;;;;;;;16.45;11.27;;;21.50;99.90;;;;;;5038070;28;20393;-83
2023/08/12 08:19:09;;;;;;;15.73;11.90;;;21.60;99.90;;;;;;5023492;28;20040;-84
2023/08/12 08:21:36;;;;;;;15.20;11.07;;;21.70;99.90;;;;;;5024721;28;20549;-83
2023/08/12 08:24:02;;;;;;;15.98;11.52;;;22.00;99.90;;;;;;5003967;28;20038;-84
2023/08/12 08:26:27;;;;;;;16.65;11.18;;;22.00;99.90;;;;;;5008465;28;20169;-84
2023/08/12 08:28:53;;;;;;;16.05;10.82;;;22.00;99.90;;;;;;5037096;28;20192;-84
2023/08/12 08:31:19;;;;;;;19.05;11.38;;;21.90;99.90;;;;;;5008639;28;20064;-84
2023/08/12 08:33:44;;;;;;;16.65;11.80;;;21.80;99.90;;;;;;5000120;28;20117;-83
2023/08/12 08:36:10;;;;;;;16.40;11.95;;;21.90;99.90;;;;;;5005743;28;20396;-83
2023/08/12 08:38:36;;;;;;;15.95;11.00;;;21.90;99.90;;;;;;5019138;28;20128;-84
2023/08/12 08:41:05;;;;;;;14.82;12.00;;;21.90;99.90;;;;;;4998439;28;20034;-83
2023/08/12 08:43:36;;;;;;;15.80;12.27;;;21.90;99.90;;;;;;5019662;28;20064;-84
2023/08/12 08:46:02;;;;;;;19.38;11.52;;;21.80;99.90;;;;;;5017727;28;20044;-83
2023/08/12 08:48:29;;;;;;;17.42;11.60;;;21.60;99.90;;;;;;5018358;28;20041;-83
2023/08/12 08:50:55;;;;;;;17.73;11.88;;;21.60;99.90;;;;;;5030533;28;20041;-84
2023/08/12 08:53:21;;;;;;;19.88;11.98;;;21.60;99.90;;;;;;5002998;28;20060;-84
2023/08/12 08:55:48;;;;;;;15.93;11.98;;;21.50;99.90;;;;;;5022219;28;20033;-84
2023/08/12 08:58:13;;;;;;;17.50;12.23;;;21.40;99.90;;;;;;5007370;28;20520;-83
2023/08/12 09:00:39;;;;;;;17.30;12.45;;;21.40;99.90;;;;;;5002062;28;20040;-83
2023/08/12 09:03:06;;;;;;;15.15;11.98;;;21.40;99.90;;;;;;5019514;28;20043;-83
2023/08/12 09:05:33;;;;;;;20.35;12.93;;;21.20;99.90;;;;;;5051066;28;20040;-83
2023/08/12 09:08:01;;;;;;;17.75;12.95;;;21.10;99.90;;;;;;5004971;28;20531;-83
2023/08/12 09:10:29;;;;;;;18.73;12.85;;;21.10;99.90;;;;;;5002432;28;20057;-83
2023/08/12 09:12:56;;;;;;;17.27;12.40;;;21.10;99.90;;;;;;4998069;28;20087;-83
2023/08/12 09:15:22;;;;;;;21.10;13.65;;;21.10;99.90;;;;;;5023375;28;20037;-83
2023/08/12 09:17:47;;;;;;;21.98;13.85;;;21.00;99.90;;;;;;5029014;28;20156;-83
2023/08/12 09:20:13;;;;;;;20.20;13.68;;;21.10;99.90;;;;;;5007005;28;20519;-83
2023/08/12 09:22:58;;;;;;;23.73;14.57;;;21.20;99.90;;;;;;5021169;28;20037;-82
2023/08/12 09:25:24;;;;;;;18.95;13.18;;;21.20;99.90;;;;;;5001669;28;20037;-83
2023/08/12 09:27:50;;;;;;;21.02;13.70;;;21.10;99.90;;;;;;5024985;28;20044;-83
2023/08/12 09:30:15;;;;;;;19.55;14.20;;;21.20;99.90;;;;;;5024521;28;20413;-82
2023/08/12 09:32:41;;;;;;;16.85;13.98;;;21.20;99.90;;;;;;5019170;28;20055;-83
2023/08/12 09:35:16;;;;;;;16.98;12.95;;;21.20;99.90;;;;;;5023084;28;20276;-83
2023/08/12 09:37:41;;;;;;;15.68;11.80;;;21.20;99.90;;;;;;5003649;28;20042;-82
2023/08/12 09:40:08;;;;;;;17.83;12.25;;;21.40;99.90;;;;;;5006926;28;20041;-82
2023/08/12 09:42:34;;;;;;;17.98;12.35;;;21.40;99.90;;;;;;5004498;28;20119;-81
2023/08/12 09:45:00;;;;;;;15.48;11.65;;;21.40;99.90;;;;;;5018693;28;20050;-82
2023/08/12 09:47:27;;;;;;;14.07;11.55;;;21.40;99.90;;;;;;5005798;28;20199;-82
2023/08/12 09:49:52;;;;;;;15.05;11.40;;;21.40;99.90;;;;;;5007335;28;20529;-82
2023/08/12 09:52:18;;;;;;;15.68;12.10;;;21.40;99.90;;;;;;5003230;28;20347;-82
2023/08/12 09:54:44;;;;;;;14.95;11.48;;;21.30;99.90;;;;;;5016930;28;20412;-83
2023/08/12 09:57:11;;;;;;;15.32;11.25;;;21.40;99.90;;;;;;5021646;28;20124;-82
2023/08/12 09:59:38;;;;;;;12.32;10.45;;;21.30;99.90;;;;;;5006348;28;20033;-82
2023/08/12 10:02:05;;;;;;;13.10;9.82;;;21.30;99.90;;;;;;5024796;28;20153;-82
2023/08/12 10:04:41;;;;;;;11.45;9.30;;;21.30;99.90;;;;;;5022469;28;20037;-82
2023/08/12 10:07:09;;;;;;;12.38;8.63;;;21.40;99.90;;;;;;5023666;28;20046;-82
2023/08/12 10:09:35;;;;;;;10.52;8.75;;;21.30;99.90;;;;;;5003632;28;20041;-81
2023/08/12 10:12:02;;;;;;;8.35;6.97;;;21.30;99.90;;;;;;5023279;28;20040;-82
2023/08/12 10:14:29;;;;;;;7.75;6.55;;;21.10;99.90;;;;;;5006802;28;20331;-82
2023/08/12 10:16:56;;;;;;;7.28;5.65;;;21.00;99.90;;;;;;5023379;28;20099;-82
2023/08/12 10:19:25;;;;;;;7.15;5.28;;;20.90;99.90;;;;;;5041926;28;20136;-82
2023/08/12 10:21:56;;;;;;;6.05;4.70;;;20.90;99.90;;;;;;5007818;28;20033;-81
2023/08/12 10:24:23;;;;;;;5.70;4.57;;;20.90;99.90;;;;;;5040091;28;20137;-82
2023/08/12 10:26:52;;;;;;;6.25;4.55;;;21.00;99.90;;;;;;5017516;28;20045;-82
2023/08/12 10:29:18;;;;;;;5.85;4.57;;;21.00;99.90;;;;;;5029878;28;20044;-82
2023/08/12 10:31:48;;;;;;;7.40;4.68;;;21.00;99.90;;;;;;5023935;28;20041;-81
2023/08/12 10:34:24;;;;;;;6.47;4.55;;;21.10;99.90;;;;;;5026041;28;20478;-81
2023/08/12 10:37:00;;;;;;;7.70;4.00;;;21.20;99.90;;;;;;5023036;28;20071;-82
2023/08/12 10:39:28;;;;;;;5.78;4.05;;;21.20;99.90;;;;;;5031183;28;20598;-82
2023/08/12 10:41:57;;;;;;;5.97;4.22;;;21.20;99.90;;;;;;5022087;28;20380;-82
2023/08/12 10:44:39;;;;;;;6.07;3.90;;;21.40;99.90;;;;;;5022226;28;20053;-81
2023/08/12 10:47:09;;;;;;;6.10;3.17;;;21.70;99.90;;;;;;5004033;28;20521;-82
2023/08/12 10:49:58;;;;;;;5.75;3.42;;;21.80;99.90;;;;;;5003653;28;20125;-82
2023/08/12 10:52:31;;;;;;;5.68;2.83;;;21.80;99.90;;;;;;5003547;28;20045;-82
2023/08/12 10:55:30;;;;;;;3.80;2.70;;;21.80;99.90;;;;;;5021243;28;20037;-82
2023/08/12 10:57:58;;;;;;;4.30;2.47;;;21.90;99.90;;;;;;4970718;28;20128;-82
2023/08/12 11:00:25;;;;;;;3.47;2.40;;;21.90;99.90;;;;;;5005122;28;20049;-82
2023/08/12 11:02:58;;;;;;;5.50;3.17;;;21.70;99.90;;;;;;5037412;28;20041;-82
2023/08/12 11:05:35;;;;;;;5.15;2.55;;;21.60;99.90;;;;;;5019744;28;20862;-82
2023/08/12 11:08:05;;;;;;;3.72;2.33;;;21.80;99.90;;;;;;5016912;28;20865;-82
2023/08/12 11:10:33;;;;;;;3.83;2.22;;;21.80;99.90;;;;;;5033261;28;20175;-82
2023/08/12 11:13:00;;;;;;;3.67;2.55;;;21.70;99.90;;;;;;5019962;28;20048;-82
2023/08/12 11:15:33;;;;;;;4.05;2.42;;;21.80;99.90;;;;;;5002818;28;20048;-82
2023/08/12 11:17:59;;;;;;;3.58;2.50;;;21.70;99.90;;;;;;5028070;28;20175;-82
2023/08/12 11:20:27;;;;;;;4.47;2.88;;;21.80;99.90;;;;;;5023526;28;20049;-82
2023/08/12 11:22:53;;;;;;;3.40;2.65;;;21.80;99.90;;;;;;5015339;28;21199;-82
2023/08/12 11:25:19;;;;;;;3.58;2.22;;;21.70;99.90;;;;;;5030766;28;20077;-81
2023/08/12 11:27:47;;;;;;;3.70;2.60;;;21.60;99.90;;;;;;5035637;28;20139;-81
2023/08/12 11:30:19;;;;;;;4.45;2.55;;;21.40;99.90;;;;;;5023685;28;20127;-82
2023/08/12 11:32:46;;;;;;;4.03;2.20;;;21.30;99.90;;;;;;5022839;28;20714;-82
2023/08/12 11:35:14;;;;;;;4.68;2.60;;;21.10;99.90;;;;;;5020160;28;20052;-81
2023/08/12 11:37:42;;;;;;;4.20;2.50;;;21.10;99.90;;;;;;5047193;28;20076;-81
2023/08/12 11:40:09;;;;;;;5.03;2.60;;;21.10;99.90;;;;;;5023024;28;20033;-81
2023/08/12 11:42:36;;;;;;;2.95;1.98;;;20.90;99.90;;;;;;5023679;28;20037;-81
2023/08/12 11:45:03;;;;;;;5.28;2.45;;;20.70;99.90;;;;;;5023755;28;20045;-81
2023/08/12 11:47:30;;;;;;;3.03;2.13;;;20.80;99.90;;;;;;5051735;28;20075;-82
2023/08/12 11:49:55;;;;;;;2.80;1.70;;;20.90;99.90;;;;;;5026156;28;20048;-82
2023/08/12 11:52:22;;;;;;;4.10;1.80;;;21.00;99.90;;;;;;5018590;28;20326;-81
2023/08/12 11:54:49;;;;;;;4.05;1.90;;;21.10;99.90;;;;;;5007451;28;20038;-81
2023/08/12 11:57:16;;;;;;;2.08;1.65;;;21.10;99.90;;;;;;5020855;28;20045;-82
2023/08/12 11:59:41;;;;;;;2.28;1.73;;;21.00;99.90;;;;;;5053740;28;20048;-83
2023/08/12 12:02:07;;;;;;;2.03;1.05;;;20.40;99.90;;;;;;5022259;28;20033;-82
2023/08/12 12:04:33;;;;;;;1.42;1.17;;;19.90;99.90;;;;;;5009465;28;20114;-82
2023/08/12 12:06:59;;;;;;;1.85;1.17;;;19.70;99.90;;;;;;5019123;28;20049;-81
2023/08/12 12:09:26;;;;;;;3.78;1.40;;;19.70;99.90;;;;;;5022272;28;20128;-82
2023/08/12 12:11:52;;;;;;;2.53;1.90;;;19.80;99.90;;;;;;5003186;28;20271;-82
2023/08/12 12:14:20;;;;;;;2.55;2.17;;;20.00;99.90;;;;;;5036579;28;20059;-82
2023/08/12 12:16:47;;;;;;;5.20;2.58;;;19.80;99.90;;;;;;5037974;28;20033;-82
2023/08/12 12:19:20;;;;;;;3.60;2.00;;;19.30;99.90;;;;;;5004936;28;20057;-82
2023/08/12 12:21:51;;;;;;;3.75;1.83;;;19.00;99.90;;;;;;5018656;28;20035;-82
2023/08/12 12:24:18;;;;;;;5.78;2.58;;;19.20;99.90;;;;;;5019106;28;20492;-82
2023/08/12 12:26:45;;;;;;;5.43;2.00;;;19.50;99.90;;;;;;5003398;28;20482;-83
2023/08/12 12:29:13;;;;;;;4.50;2.20;;;19.50;99.90;;;;;;5031173;28;20072;-82
2023/08/12 12:31:40;;;;;;;4.47;2.25;;;19.90;99.90;;;;;;5007188;28;20824;-82
2023/08/12 12:34:07;;;;;;;3.72;2.10;;;20.10;99.90;;;;;;5004631;28;20049;-82
2023/08/12 12:36:36;;;;;;;3.97;2.33;;;20.20;99.90;;;;;;5025579;28;20116;-83